sensor_id;sensor_type;location;lat;lon;timestamp;pressure;altitude;pressure_sealevel;temperature;humidity
13015;BME280;6573;57.696;11.950;2023-05-21T00:01:50;102590.97;;;16.58;100.00
13015;BME280;6573;57.696;11.950;2023-05-21T00:04:20;102596.28;;;16.55;100.00
13015;BME280;6573;57.696;11.950;2023-05-21T00:06:48;102596.22;;;16.40;100.00
13015;BME280;6573;57.696;11.950;2023-05-21T00:09:17;102589.13;;;16.30;100.00
13015;BME280;6573;57.696;11.950;2023-05-21T00:11:47;102592.69;;;16.41;100.00
13015;BME280;6573;57.696;11.950;2023-05-21T00:14:15;102598.88;;;16.43;100.00
13015;BME280;6573;57.696;11.950;2023-05-21T00:16:44;102597.13;;;16.47;100.00
13015;BME280;6573;57.696;11.950;2023-05-21T00:19:13;102583.91;;;16.54;100.00
13015;BME280;6573;57.696;11.950;2023-05-21T00:21:42;102585.63;;;16.49;100.00
13015;BME280;6573;57.696;11.950;2023-05-21T00:24:11;102580.34;;;16.64;100.00
13015;BME280;6573;57.696;11.950;2023-05-21T00:26:41;102576.81;;;16.68;100.00
13015;BME280;6573;57.696;11.950;2023-05-21T00:29:11;102573.25;;;16.57;100.00
13015;BME280;6573;57.696;11.950;2023-05-21T00:31:39;102575.03;;;16.61;100.00
13015;BME280;6573;57.696;11.950;2023-05-21T00:34:08;102581.22;;;16.53;100.00
13015;BME280;6573;57.696;11.950;2023-05-21T00:36:37;102576.69;;;16.20;100.00
13015;BME280;6573;57.696;11.950;2023-05-21T00:39:06;102573.13;;;16.00;100.00
13015;BME280;6573;57.696;11.950;2023-05-21T00:41:34;102571.34;;;15.90;100.00
13015;BME280;6573;57.696;11.950;2023-05-21T00:44:04;102580.19;;;16.01;100.00
13015;BME280;6573;57.696;11.950;2023-05-21T00:46:38;102577.53;;;15.92;100.00
13015;BME280;6573;57.696;11.950;2023-05-21T00:49:07;102580.19;;;15.92;100.00
13015;BME280;6573;57.696;11.950;2023-05-21T00:51:35;102579.28;;;15.90;100.00
13015;BME280;6573;57.696;11.950;2023-05-21T00:54:04;102569.53;;;15.89;100.00
13015;BME280;6573;57.696;11.950;2023-05-21T00:56:34;102574.84;;;15.86;100.00
13015;BME280;6573;57.696;11.950;2023-05-21T00:59:03;102576.59;;;15.84;100.00
13015;BME280;6573;57.696;11.950;2023-05-21T01:01:32;102578.38;;;15.85;100.00
13015;BME280;6573;57.696;11.950;2023-05-21T01:04:04;102574.78;;;15.71;100.00
13015;BME280;6573;57.696;11.950;2023-05-21T01:06:32;102568.63;;;15.78;100.00
13015;BME280;6573;57.696;11.950;2023-05-21T01:09:01;102573.09;;;15.85;100.00
13015;BME280;6573;57.696;11.950;2023-05-21T01:11:37;102569.59;;;15.95;100.00
13015;BME280;6573;57.696;11.950;2023-05-21T01:14:07;102576.69;;;16.08;100.00
13015;BME280;6573;57.696;11.950;2023-05-21T01:16:40;102571.41;;;16.26;100.00
13015;BME280;6573;57.696;11.950;2023-05-21T01:19:14;102573.19;;;16.27;100.00
13015;BME280;6573;57.696;11.950;2023-05-21T01:21:55;102569.66;;;16.34;100.00
13015;BME280;6573;57.696;11.950;2023-05-21T01:24:25;102566.13;;;16.29;100.00
13015;BME280;6573;57.696;11.950;2023-05-21T01:26:54;102574.06;;;16.31;100.00
13015;BME280;6573;57.696;11.950;2023-05-21T01:29:24;102573.19;;;16.24;100.00
13015;BME280;6573;57.696;11.950;2023-05-21T01:31:58;102579.38;;;16.22;100.00
13015;BME280;6573;57.696;11.950;2023-05-21T01:34:34;102580.25;;;16.19;100.00
13015;BME280;6573;57.696;11.950;2023-05-21T01:37:11;102586.41;;;16.10;100.00
13015;BME280;6573;57.696;11.950;2023-05-21T01:39:43;102583.75;;;16.15;100.00
13015;BME280;6573;57.696;11.950;2023-05-21T01:42:15;102575.84;;;16.24;100.00
13015;BME280;6573;57.696;11.950;2023-05-21T01:44:44;102576.75;;;16.29;100.00
13015;BME280;6573;57.696;11.950;2023-05-21T01:47:15;102574.97;;;16.31;100.00
13015;BME280;6573;57.696;11.950;2023-05-21T01:49:45;102571.41;;;16.35;100.00
13015;BME280;6573;57.696;11.950;2023-05-21T01:52:13;102569.66;;;16.31;100.00
13015;BME280;6573;57.696;11.950;2023-05-21T01:54:43;102582.00;;;16.14;100.00
13015;BME280;6573;57.696;11.950;2023-05-21T01:57:13;102575.78;;;16.06;100.00
13015;BME280;6573;57.696;11.950;2023-05-21T01:59:43;102559.81;;;15.91;100.00
13015;BME280;6573;57.696;11.950;2023-05-21T02:02:11;102578.47;;;16.12;100.00
13015;BME280;6573;57.696;11.950;2023-05-21T02:04:39;102581.94;;;15.87;100.00
13015;BME280;6573;57.696;11.950;2023-05-21T02:07:08;102581.03;;;15.80;100.00
13015;BME280;6573;57.696;11.950;2023-05-21T02:09:36;102580.16;;;15.89;100.00
13015;BME280;6573;57.696;11.950;2023-05-21T02:12:07;102576.63;;;15.93;100.00
13015;BME280;6573;57.696;11.950;2023-05-21T02:14:35;102574.03;;;16.02;100.00
13015;BME280;6573;57.696;11.950;2023-05-21T02:17:04;102578.47;;;16.09;100.00
13015;BME280;6573;57.696;11.950;2023-05-21T02:19:34;102580.19;;;15.95;100.00
13015;BME280;6573;57.696;11.950;2023-05-21T02:22:02;102570.50;;;16.13;100.00
13015;BME280;6573;57.696;11.950;2023-05-21T02:24:31;102583.78;;;16.21;100.00
13015;BME280;6573;57.696;11.950;2023-05-21T02:26:59;102575.81;;;16.23;100.00
13015;BME280;6573;57.696;11.950;2023-05-21T02:29:30;102578.47;;;16.18;100.00
13015;BME280;6573;57.696;11.950;2023-05-21T02:31:58;102574.94;;;16.10;100.00
13015;BME280;6573;57.696;11.950;2023-05-21T02:34:26;102578.44;;;16.03;100.00
13015;BME280;6573;57.696;11.950;2023-05-21T02:36:56;102576.66;;;15.99;100.00
13015;BME280;6573;57.696;11.950;2023-05-21T02:39:27;102562.47;;;15.85;100.00
13015;BME280;6573;57.696;11.950;2023-05-21T02:41:58;102581.97;;;15.99;100.00
13015;BME280;6573;57.696;11.950;2023-05-21T02:44:31;102571.38;;;16.11;100.00
13015;BME280;6573;57.696;11.950;2023-05-21T02:47:00;102575.78;;;16.06;100.00
13015;BME280;6573;57.696;11.950;2023-05-21T02:49:28;102569.59;;;15.95;100.00
13015;BME280;6573;57.696;11.950;2023-05-21T02:51:57;102574.84;;;15.86;100.00
13015;BME280;6573;57.696;11.950;2023-05-21T02:54:26;102581.97;;;15.99;100.00
13015;BME280;6573;57.696;11.950;2023-05-21T02:56:54;102559.88;;;16.00;100.00
13015;BME280;6573;57.696;11.950;2023-05-21T02:59:22;102587.31;;;16.18;100.00
13015;BME280;6573;57.696;11.950;2023-05-21T03:01:52;102578.41;;;15.94;100.00
13015;BME280;6573;57.696;11.950;2023-05-21T03:04:21;102581.97;;;15.99;100.00
13015;BME280;6573;57.696;11.950;2023-05-21T03:06:49;102579.34;;;16.11;100.00
13015;BME280;6573;57.696;11.950;2023-05-21T03:09:21;102577.56;;;16.17;100.00
13015;BME280;6573;57.696;11.950;2023-05-21T03:11:49;102575.81;;;16.16;100.00
13015;BME280;6573;57.696;11.950;2023-05-21T03:14:18;102583.78;;;16.18;100.00
13015;BME280;6573;57.696;11.950;2023-05-21T03:16:46;102555.47;;;16.17;100.00
13015;BME280;6573;57.696;11.950;2023-05-21T03:19:18;102569.66;;;16.31;100.00
13015;BME280;6573;57.696;11.950;2023-05-21T03:21:50;102573.06;;;15.88;100.00
13015;BME280;6573;57.696;11.950;2023-05-21T03:24:18;102576.53;;;15.63;100.00
13015;BME280;6573;57.696;11.950;2023-05-21T03:26:46;102557.00;;;15.45;100.00
13015;BME280;6573;57.696;11.950;2023-05-21T03:29:15;102571.19;;;15.57;100.00
13015;BME280;6573;57.696;11.950;2023-05-21T03:31:45;102571.16;;;15.53;100.00
13015;BME280;6573;57.696;11.950;2023-05-21T03:34:13;102571.22;;;15.66;100.00
13015;BME280;6573;57.696;11.950;2023-05-21T03:36:43;102574.78;;;15.69;100.00
13015;BME280;6573;57.696;11.950;2023-05-21T03:39:11;102570.38;;;15.70;100.00
13015;BME280;6573;57.696;11.950;2023-05-21T03:41:40;102573.09;;;15.85;100.00
13015;BME280;6573;57.696;11.950;2023-05-21T03:44:09;102574.03;;;16.02;100.00
13015;BME280;6573;57.696;11.950;2023-05-21T03:46:37;102566.00;;;15.87;100.00
13015;BME280;6573;57.696;11.950;2023-05-21T03:49:05;102567.81;;;16.03;100.00
13015;BME280;6573;57.696;11.950;2023-05-21T03:51:34;102573.09;;;15.85;100.00
13015;BME280;6573;57.696;11.950;2023-05-21T03:54:05;102554.41;;;15.59;100.00
13015;BME280;6573;57.696;11.950;2023-05-21T03:56:34;102571.28;;;15.75;100.00
13015;BME280;6573;57.696;11.950;2023-05-21T03:59:02;102568.69;;;15.90;100.00
13015;BME280;6573;57.696;11.950;2023-05-21T04:01:31;102576.69;;;16.02;100.00
13015;BME280;6573;57.696;11.950;2023-05-21T04:04:00;102581.97;;;15.99;100.00
13015;BME280;6573;57.696;11.950;2023-05-21T04:06:29;102576.69;;;16.05;100.00
13015;BME280;6573;57.696;11.950;2023-05-21T04:08:58;102573.16;;;16.09;100.00
13015;BME280;6573;57.696;11.950;2023-05-21T04:11:28;102574.91;;;16.05;100.00
13015;BME280;6573;57.696;11.950;2023-05-21T04:13:57;102572.25;;;16.13;100.00
13015;BME280;6573;57.696;11.950;2023-05-21T04:16:26;102578.47;;;16.15;100.00
13015;BME280;6573;57.696;11.950;2023-05-21T04:18:54;102573.19;;;16.30;100.00
13015;BME280;6573;57.696;11.950;2023-05-21T04:21:22;102564.38;;;16.37;100.00
13015;BME280;6573;57.696;11.950;2023-05-21T04:23:51;102571.44;;;16.38;100.00
13015;BME280;6573;57.696;11.950;2023-05-21T04:26:20;102559.03;;;16.43;100.00
13015;BME280;6573;57.696;11.950;2023-05-21T04:28:49;102578.53;;;16.51;100.00
13015;BME280;6573;57.696;11.950;2023-05-21T04:31:20;102566.19;;;16.56;100.00
13015;BME280;6573;57.696;11.950;2023-05-21T04:33:49;102566.16;;;16.53;100.00
13015;BME280;6573;57.696;11.950;2023-05-21T04:36:18;102574.13;;;16.62;100.00
13015;BME280;6573;57.696;11.950;2023-05-21T04:38:46;102572.34;;;16.52;100.00
13015;BME280;6573;57.696;11.950;2023-05-21T04:41:15;102569.72;;;16.61;100.00
13015;BME280;6573;57.696;11.950;2023-05-21T04:43:45;102569.72;;;16.64;100.00
13015;BME280;6573;57.696;11.950;2023-05-21T04:46:15;102534.28;;;16.56;100.00
13015;BME280;6573;57.696;11.950;2023-05-21T04:48:43;102564.41;;;16.76;100.00
13015;BME280;6573;57.696;11.950;2023-05-21T04:51:13;102560.84;;;16.80;100.00
13015;BME280;6573;57.696;11.950;2023-05-21T04:53:41;102567.94;;;16.81;100.00
13015;BME280;6573;57.696;11.950;2023-05-21T04:56:10;102554.66;;;16.81;100.00
13015;BME280;6573;57.696;11.950;2023-05-21T04:58:38;102552.88;;;16.91;100.00
13015;BME280;6573;57.696;11.950;2023-05-21T05:01:07;102550.19;;;16.99;100.00
13015;BME280;6573;57.696;11.950;2023-05-21T05:03:38;102548.41;;;17.04;100.00
13015;BME280;6573;57.696;11.950;2023-05-21T05:06:06;102546.63;;;17.06;100.00
13015;BME280;6573;57.696;11.950;2023-05-21T05:08:35;102549.28;;;17.03;100.00
13015;BME280;6573;57.696;11.950;2023-05-21T05:11:04;102539.53;;;17.11;100.00
13015;BME280;6573;57.696;11.950;2023-05-21T05:13:32;102542.19;;;17.12;100.00
13015;BME280;6573;57.696;11.950;2023-05-21T05:16:01;102549.28;;;17.21;100.00
13015;BME280;6573;57.696;11.950;2023-05-21T05:18:30;102530.66;;;17.12;100.00
13015;BME280;6573;57.696;11.950;2023-05-21T05:21:02;102551.94;;;17.24;100.00
13015;BME280;6573;57.696;11.950;2023-05-21T05:23:30;102551.91;;;17.27;100.00
13015;BME280;6573;57.696;11.950;2023-05-21T05:26:00;102553.69;;;17.34;100.00
13015;BME280;6573;57.696;11.950;2023-05-21T05:28:28;102558.91;;;17.49;100.00
13015;BME280;6573;57.696;11.950;2023-05-21T05:30:57;102528.81;;;17.32;100.00
13015;BME280;6573;57.696;11.950;2023-05-21T05:33:25;102550.06;;;17.47;100.00
13015;BME280;6573;57.696;11.950;2023-05-21T05:35:53;102551.84;;;17.54;100.00
13015;BME280;6573;57.696;11.950;2023-05-21T05:38:24;102553.59;;;17.61;100.00
13015;BME280;6573;57.696;11.950;2023-05-21T05:40:52;102554.44;;;17.71;100.00
13015;BME280;6573;57.696;11.950;2023-05-21T05:43:21;102555.34;;;17.65;100.00
13015;BME280;6573;57.696;11.950;2023-05-21T05:45:50;102541.03;;;17.93;100.00
13015;BME280;6573;57.696;11.950;2023-05-21T05:48:18;102523.28;;;17.89;100.00
13015;BME280;6573;57.696;11.950;2023-05-21T05:50:47;102542.78;;;17.91;100.00
13015;BME280;6573;57.696;11.950;2023-05-21T05:53:15;102539.22;;;17.95;100.00
13015;BME280;6573;57.696;11.950;2023-05-21T05:55:45;102523.25;;;17.94;100.00
13015;BME280;6573;57.696;11.950;2023-05-21T05:58:13;102543.53;;;18.15;100.00
13015;BME280;6573;57.696;11.950;2023-05-21T06:00:42;102539.88;;;18.29;100.00
13015;BME280;6573;57.696;11.950;2023-05-21T06:03:10;102541.69;;;18.27;100.00
13015;BME280;6573;57.696;11.950;2023-05-21T06:05:39;102540.78;;;18.30;100.00
13015;BME280;6573;57.696;11.950;2023-05-21T06:08:07;102541.59;;;18.39;100.00
13015;BME280;6573;57.696;11.950;2023-05-21T06:10:36;102538.91;;;18.47;100.00
13015;BME280;6573;57.696;11.950;2023-05-21T06:13:05;102536.13;;;18.59;100.00
13015;BME280;6573;57.696;11.950;2023-05-21T06:15:34;102537.06;;;18.58;100.00
13015;BME280;6573;57.696;11.950;2023-05-21T06:18:03;102537.06;;;18.58;100.00
13015;BME280;6573;57.696;11.950;2023-05-21T06:20:31;102531.66;;;18.61;100.00
13015;BME280;6573;57.696;11.950;2023-05-21T06:23:00;102528.00;;;18.74;100.00
13015;BME280;6573;57.696;11.950;2023-05-21T06:25:31;102507.66;;;18.64;100.00
13015;BME280;6573;57.696;11.950;2023-05-21T06:28:00;102515.66;;;18.64;100.00
13015;BME280;6573;57.696;11.950;2023-05-21T06:30:30;102522.75;;;18.68;100.00
13015;BME280;6573;57.696;11.950;2023-05-21T06:32:59;102522.53;;;18.89;100.00
13015;BME280;6573;57.696;11.950;2023-05-21T06:35:27;102524.19;;;18.99;100.00
13015;BME280;6573;57.696;11.950;2023-05-21T06:37:56;102517.00;;;19.07;100.00
13015;BME280;6573;57.696;11.950;2023-05-21T06:40:24;102524.00;;;19.17;100.00
13015;BME280;6573;57.696;11.950;2023-05-21T06:42:52;102532.03;;;19.14;100.00
13015;BME280;6573;57.696;11.950;2023-05-21T06:45:22;102528.38;;;19.24;100.00
13015;BME280;6573;57.696;11.950;2023-05-21T06:47:51;102530.03;;;19.34;100.00
13015;BME280;6573;57.696;11.950;2023-05-21T06:50:20;102515.91;;;19.26;100.00
13015;BME280;6573;57.696;11.950;2023-05-21T06:52:48;102506.00;;;19.37;100.00
13015;BME280;6573;57.696;11.950;2023-05-21T06:55:17;102523.78;;;19.38;100.00
13015;BME280;6573;57.696;11.950;2023-05-21T06:57:45;102527.22;;;19.50;100.00
13015;BME280;6573;57.696;11.950;2023-05-21T07:00:14;102512.97;;;19.48;100.00
13015;BME280;6573;57.696;11.950;2023-05-21T07:02:42;102526.97;;;19.68;100.00
13015;BME280;6573;57.696;11.950;2023-05-21T07:05:12;102513.47;;;19.78;100.00
13015;BME280;6573;57.696;11.950;2023-05-21T07:07:41;102525.72;;;19.94;100.00
13015;BME280;6573;57.696;11.950;2023-05-21T07:10:09;102526.41;;;20.07;100.00
13015;BME280;6573;57.696;11.950;2023-05-21T07:12:38;102524.53;;;20.12;100.00
13015;BME280;6573;57.696;11.950;2023-05-21T07:15:07;102520.75;;;20.31;100.00
13015;BME280;6573;57.696;11.950;2023-05-21T07:17:36;102527.69;;;20.41;100.00
13015;BME280;6573;57.696;11.950;2023-05-21T07:20:06;102524.81;;;20.53;100.00
13015;BME280;6573;57.696;11.950;2023-05-21T07:22:37;102508.03;;;20.45;100.00
13015;BME280;6573;57.696;11.950;2023-05-21T07:25:07;102522.34;;;20.41;100.00
13015;BME280;6573;57.696;11.950;2023-05-21T07:27:35;102521.31;;;20.51;100.00
13015;BME280;6573;57.696;11.950;2023-05-21T07:30:05;102515.81;;;20.57;100.00
13015;BME280;6573;57.696;11.950;2023-05-21T07:32:33;102528.91;;;20.76;100.00
13015;BME280;6573;57.696;11.950;2023-05-21T07:35:02;102521.38;;;20.96;100.00
13015;BME280;6573;57.696;11.950;2023-05-21T07:37:30;102516.94;;;20.95;100.00
13015;BME280;6573;57.696;11.950;2023-05-21T07:40:00;102518.81;;;21.37;100.00
13015;BME280;6573;57.696;11.950;2023-05-21T07:42:29;102504.91;;;22.03;100.00
13015;BME280;6573;57.696;11.950;2023-05-21T07:44:58;102494.47;;;22.27;100.00
13015;BME280;6573;57.696;11.950;2023-05-21T07:47:28;102484.69;;;22.62;100.00
13015;BME280;6573;57.696;11.950;2023-05-21T07:49:56;102497.50;;;22.84;100.00
13015;BME280;6573;57.696;11.950;2023-05-21T07:52:25;102495.47;;;22.92;100.00
13015;BME280;6573;57.696;11.950;2023-05-21T07:54:56;102505.81;;;23.69;98.76
13015;BME280;6573;57.696;11.950;2023-05-21T07:57:30;102492.44;;;23.95;94.41
13015;BME280;6573;57.696;11.950;2023-05-21T08:00:02;102496.63;;;24.31;93.03
13015;BME280;6573;57.696;11.950;2023-05-21T08:02:33;102489.66;;;24.52;93.45
13015;BME280;6573;57.696;11.950;2023-05-21T08:05:02;102468.19;;;24.51;88.59
13015;BME280;6573;57.696;11.950;2023-05-21T08:07:30;102495.81;;;24.82;89.14
13015;BME280;6573;57.696;11.950;2023-05-21T08:10:02;102488.66;;;25.30;87.46
13015;BME280;6573;57.696;11.950;2023-05-21T08:12:33;102491.69;;;25.21;84.17
13015;BME280;6573;57.696;11.950;2023-05-21T08:15:02;102491.53;;;25.01;85.07
13015;BME280;6573;57.696;11.950;2023-05-21T08:17:30;102490.63;;;25.02;83.74
13015;BME280;6573;57.696;11.950;2023-05-21T08:19:59;102488.91;;;24.49;84.64
13015;BME280;6573;57.696;11.950;2023-05-21T08:22:27;102488.72;;;24.27;85.14
13015;BME280;6573;57.696;11.950;2023-05-21T08:24:57;102490.19;;;24.09;85.23
13015;BME280;6573;57.696;11.950;2023-05-21T08:27:26;102485.41;;;23.91;85.93
13015;BME280;6573;57.696;11.950;2023-05-21T08:29:55;102492.44;;;23.95;85.15
13015;BME280;6573;57.696;11.950;2023-05-21T08:32:24;102480.66;;;24.27;85.33
13015;BME280;6573;57.696;11.950;2023-05-21T08:34:52;102488.47;;;24.08;84.96
13015;BME280;6573;57.696;11.950;2023-05-21T08:37:20;102481.78;;;23.92;85.14
13015;BME280;6573;57.696;11.950;2023-05-21T08:39:51;102485.50;;;23.88;85.28
13015;BME280;6573;57.696;11.950;2023-05-21T08:42:29;102481.69;;;23.95;84.32
13015;BME280;6573;57.696;11.950;2023-05-21T08:45:06;102484.56;;;23.60;84.94
13015;BME280;6573;57.696;11.950;2023-05-21T08:47:35;102488.22;;;23.59;86.00
13015;BME280;6573;57.696;11.950;2023-05-21T08:50:04;102484.09;;;23.75;86.12
13015;BME280;6573;57.696;11.950;2023-05-21T08:52:36;102475.38;;;23.96;85.82
13015;BME280;6573;57.696;11.950;2023-05-21T08:55:05;102476.69;;;23.83;85.68
13015;BME280;6573;57.696;11.950;2023-05-21T08:57:34;102480.81;;;24.22;85.63
13015;BME280;6573;57.696;11.950;2023-05-21T09:00:06;102467.41;;;24.73;84.75
13015;BME280;6573;57.696;11.950;2023-05-21T09:02:35;102470.50;;;25.12;83.72
13015;BME280;6573;57.696;11.950;2023-05-21T09:05:08;102467.44;;;24.98;83.54
13015;BME280;6573;57.696;11.950;2023-05-21T09:10:24;102449.00;;;24.86;84.25
13015;BME280;6573;57.696;11.950;2023-05-21T09:12:54;102469.66;;;25.33;84.13
13015;BME280;6573;57.696;11.950;2023-05-21T09:15:25;102467.25;;;25.50;83.93
13015;BME280;6573;57.696;11.950;2023-05-21T09:17:53;102460.66;;;25.34;84.32
13015;BME280;6573;57.696;11.950;2023-05-21T09:20:24;102472.94;;;25.18;84.33
13015;BME280;6573;57.696;11.950;2023-05-21T09:22:53;102462.66;;;25.29;84.22
13015;BME280;6573;57.696;11.950;2023-05-21T09:25:23;102463.72;;;25.48;83.65
13015;BME280;6573;57.696;11.950;2023-05-21T09:27:54;102455.09;;;25.16;83.45
13015;BME280;6573;57.696;11.950;2023-05-21T09:30:25;102459.63;;;24.64;84.51
13015;BME280;6573;57.696;11.950;2023-05-21T09:32:58;102454.63;;;24.54;84.85
13015;BME280;6573;57.696;11.950;2023-05-21T09:35:28;102449.22;;;24.54;84.41
13015;BME280;6573;57.696;11.950;2023-05-21T09:37:56;102445.84;;;24.49;84.84
13015;BME280;6573;57.696;11.950;2023-05-21T09:40:25;102442.31;;;24.46;84.88
13015;BME280;6573;57.696;11.950;2023-05-21T09:42:54;102442.53;;;24.40;84.97
13015;BME280;6573;57.696;11.950;2023-05-21T09:45:25;102423.75;;;24.39;85.07
13015;BME280;6573;57.696;11.950;2023-05-21T09:47:55;102438.81;;;24.69;85.25
13015;BME280;6573;57.696;11.950;2023-05-21T09:50:24;102440.03;;;25.10;84.80
13015;BME280;6573;57.696;11.950;2023-05-21T09:52:57;102442.06;;;25.51;84.27
13015;BME280;6573;57.696;11.950;2023-05-21T09:55:28;102442.88;;;25.30;83.91
13015;BME280;6573;57.696;11.950;2023-05-21T09:57:58;102421.78;;;24.93;85.25
13015;BME280;6573;57.696;11.950;2023-05-21T10:00:28;102428.31;;;24.88;84.74
13015;BME280;6573;57.696;11.950;2023-05-21T10:03:00;102424.97;;;24.55;85.07
13015;BME280;6573;57.696;11.950;2023-05-21T10:05:29;102423.25;;;24.79;85.89
13015;BME280;6573;57.696;11.950;2023-05-21T10:07:59;102428.81;;;25.22;84.73
13015;BME280;6573;57.696;11.950;2023-05-21T10:10:28;102416.50;;;25.15;84.13
13015;BME280;6573;57.696;11.950;2023-05-21T10:13:00;102415.41;;;24.71;85.32
13015;BME280;6573;57.696;11.950;2023-05-21T10:15:38;102411.00;;;24.69;85.73
13015;BME280;6573;57.696;11.950;2023-05-21T10:18:08;102411.34;;;25.09;85.19
13015;BME280;6573;57.696;11.950;2023-05-21T10:20:37;102413.94;;;24.63;85.89
13015;BME280;6573;57.696;11.950;2023-05-21T10:23:06;102398.81;;;24.59;86.08
13015;BME280;6573;57.696;11.950;2023-05-21T10:25:38;102416.13;;;24.78;86.95
13015;BME280;6573;57.696;11.950;2023-05-21T10:28:08;102400.66;;;25.06;86.18
13015;BME280;6573;57.696;11.950;2023-05-21T10:30:38;102406.84;;;25.09;85.88
13015;BME280;6573;57.696;11.950;2023-05-21T10:33:06;102399.63;;;24.87;86.84
13015;BME280;6573;57.696;11.950;2023-05-21T10:35:36;102398.09;;;24.80;87.38
13015;BME280;6573;57.696;11.950;2023-05-21T10:38:06;102392.94;;;24.97;87.35
13015;BME280;6573;57.696;11.950;2023-05-21T10:40:35;102387.59;;;25.20;86.56
13015;BME280;6573;57.696;11.950;2023-05-21T10:43:37;102393.44;;;25.08;86.91
13015;BME280;6573;57.696;11.950;2023-05-21T10:46:38;102383.38;;;25.58;85.92
13015;BME280;6573;57.696;11.950;2023-05-21T10:49:25;102372.84;;;25.73;86.38
13015;BME280;6573;57.696;11.950;2023-05-21T10:52:06;102369.94;;;25.80;86.73
13015;BME280;6573;57.696;11.950;2023-05-21T10:54:59;102374.69;;;25.95;86.36
13015;BME280;6573;57.696;11.950;2023-05-21T10:57:42;102370.22;;;25.94;86.39
13015;BME280;6573;57.696;11.950;2023-05-21T11:00:15;102367.34;;;25.77;86.24
13015;BME280;6573;57.696;11.950;2023-05-21T11:02:48;102367.88;;;25.41;86.79
13015;BME280;6573;57.696;11.950;2023-05-21T11:05:37;102364.97;;;25.47;86.90
13015;BME280;6573;57.696;11.950;2023-05-21T11:08:18;102357.94;;;25.87;86.72
13015;BME280;6573;57.696;11.950;2023-05-21T11:10:52;102364.28;;;26.06;86.89
13015;BME280;6573;57.696;11.950;2023-05-21T11:13:21;102360.53;;;26.10;86.77
13015;BME280;6573;57.696;11.950;2023-05-21T11:16:05;102370.44;;;26.09;86.67
13015;BME280;6573;57.696;11.950;2023-05-21T11:18:57;102361.91;;;26.20;86.62
13015;BME280;6573;57.696;11.950;2023-05-21T11:21:28;102361.44;;;25.89;86.52
13015;BME280;6573;57.696;11.950;2023-05-21T11:24:02;102359.34;;;25.75;87.15
13015;BME280;6573;57.696;11.950;2023-05-21T11:27:00;102354.69;;;25.79;86.55
13015;BME280;6573;57.696;11.950;2023-05-21T11:29:43;102369.13;;;25.78;87.39
13015;BME280;6573;57.696;11.950;2023-05-21T11:32:13;102363.72;;;25.78;86.75
13015;BME280;6573;57.696;11.950;2023-05-21T11:34:47;102358.69;;;25.47;87.26
13015;BME280;6573;57.696;11.950;2023-05-21T11:37:32;102352.31;;;25.26;88.03
13015;BME280;6573;57.696;11.950;2023-05-21T11:40:18;102347.13;;;25.43;88.11
13015;BME280;6573;57.696;11.950;2023-05-21T11:42:49;102338.22;;;25.41;88.11
13015;BME280;6573;57.696;11.950;2023-05-21T11:45:18;102342.00;;;25.81;88.01
13015;BME280;6573;57.696;11.950;2023-05-21T11:47:47;102346.75;;;25.96;87.45
13015;BME280;6573;57.696;11.950;2023-05-21T11:50:17;102338.25;;;25.85;86.99
13015;BME280;6573;57.696;11.950;2023-05-21T11:52:47;102337.41;;;25.62;87.85
13015;BME280;6573;57.696;11.950;2023-05-21T11:55:20;102341.22;;;25.99;87.73
13015;BME280;6573;57.696;11.950;2023-05-21T11:57:51;102331.09;;;25.84;87.83
13015;BME280;6573;57.696;11.950;2023-05-21T12:00:20;102333.38;;;25.73;87.96
13015;BME280;6573;57.696;11.950;2023-05-21T12:02:50;102339.75;;;25.92;87.99
13015;BME280;6573;57.696;11.950;2023-05-21T12:05:21;102336.38;;;25.87;87.84
13015;BME280;6573;57.696;11.950;2023-05-21T12:07:50;102329.59;;;25.77;88.10
13015;BME280;6573;57.696;11.950;2023-05-21T12:10:20;102346.03;;;25.92;87.51
13015;BME280;6573;57.696;11.950;2023-05-21T12:12:50;102333.09;;;25.79;87.70
13015;BME280;6573;57.696;11.950;2023-05-21T12:15:23;102333.75;;;25.63;87.84
13015;BME280;6573;57.696;11.950;2023-05-21T12:17:55;102326.97;;;25.53;88.17
13015;BME280;6573;57.696;11.950;2023-05-21T12:20:26;102327.84;;;25.76;87.83
13015;BME280;6573;57.696;11.950;2023-05-21T12:22:56;102325.34;;;25.71;88.03
13015;BME280;6573;57.696;11.950;2023-05-21T12:25:27;102328.00;;;25.73;87.72
13015;BME280;6573;57.696;11.950;2023-05-21T12:27:56;102320.94;;;25.68;87.10
13015;BME280;6573;57.696;11.950;2023-05-21T12:30:29;102330.75;;;25.49;88.17
13015;BME280;6573;57.696;11.950;2023-05-21T12:32:57;102321.22;;;25.62;87.80
13015;BME280;6573;57.696;11.950;2023-05-21T12:35:30;102323.41;;;25.75;86.97
13015;BME280;6573;57.696;11.950;2023-05-21T12:38:01;102331.78;;;25.89;87.08
13015;BME280;6573;57.696;11.950;2023-05-21T12:40:36;102320.31;;;25.84;86.52
13015;BME280;6573;57.696;11.950;2023-05-21T12:43:06;102331.50;;;25.75;87.10
13015;BME280;6573;57.696;11.950;2023-05-21T12:45:35;102322.59;;;25.73;87.46
13015;BME280;6573;57.696;11.950;2023-05-21T12:48:05;102330.84;;;25.90;86.95
13015;BME280;6573;57.696;11.950;2023-05-21T12:50:39;102302.56;;;25.78;86.50
13015;BME280;6573;57.696;11.950;2023-05-21T12:53:08;102322.69;;;25.91;86.58
13015;BME280;6573;57.696;11.950;2023-05-21T12:55:38;102326.09;;;25.75;86.56
13015;BME280;6573;57.696;11.950;2023-05-21T12:58:07;102320.66;;;25.96;86.33
13015;BME280;6573;57.696;11.950;2023-05-21T13:00:35;102316.53;;;25.88;86.61
13015;BME280;6573;57.696;11.950;2023-05-21T13:03:04;102315.19;;;25.78;86.91